Fort Hancock, Texas
Current Conditions -  °F | °C
As of 6:47 PM on Monday 24 Nov 2014 (Local Time) from MMCS Reporting Station
Few Clouds Few Clouds  
Wind Chill: 46°   Ceiling: Unl
Heat Index: 48°   Visibility: 10mi
Dew Point: 16°   Wind: 6mph
Humidity: 27%   Direction: 300°WNW
Pressure: 30.06"   Gusts: NA
Location:  31.3°N, 105.85°W
Report Text: MMCS 250147Z 30005KT 10SM FEW070 09/M09 A3006 RMK 8/070
Loading
Personal Weather Stations






























Interactive Weather Map New forecast layout! Learn more

10-Day Weather Forecast

Advertisements
Track Severe Weather on mobile